Mc Dade, Texas
Current Conditions -  °F | °C
As of 2:55 PM on Monday 22 Dec 2014 (Local Time) from KGYB Reporting Station
Clear Clear  
Wind Chill: 65°   Ceiling: Unl
Heat Index: 65°   Visibility: 10mi
Dew Point: 55°   Wind: 5mph
Humidity: 69%   Direction: 220°SW
Pressure: 29.67"   Gusts: NA
Location:  30.3044°N, 97.2211°W
Report Text: KGYB 222055Z AUTO 22004KT 10SM CLR 19/13 A2967 RMK AO2 T01860128
Loading
Personal Weather Stations






























Interactive Weather Map New forecast layout! Learn more

10-Day Weather Forecast

Advertisements
Track Severe Weather on mobile